Kiso — 3EPY3 — position and weather

sailwx.info

Track history (hours):
 
Tides and Currents Weather Stations Pressure Air Temp Water Temp Dewpoint Dewpoint Depression Visibility Wind Speed Wind Dir Waves Ship Positions

Kiso

Last reported at 2018-Jun-19 10:21 UTC. Time now 2018-Jun-19 10:37 UTC.
Position N 37°55' W 122°22'.

Length 170 m; draft 9.8 m.

Type: Ship. MMSI: 356958000.

Date/timePositionNaut miles runAvg speedWind from/ knotsBaromVisibWave heightAir tempDewpointWater temp
2018-Jun-19 10:21N 37°55' W 122°22'0 0.0
2018-Jun-19 08:29N 37°55' W 122°22'0 0.0
2018-Jun-19 07:48N 37°55' W 122°22'0 0.0
2018-Jun-19 07:27N 37°55' W 122°22'0 0.0
2018-Jun-19 06:56N 37°55' W 122°22'0 0.0
2018-Jun-19 06:26N 37°55' W 122°22'0 0.0
2018-Jun-19 05:57N 37°55' W 122°22'0 0.0
2018-Jun-19 05:26N 37°55' W 122°22'0 0.0
2018-Jun-19 04:56N 37°55' W 122°22'0 0.0
2018-Jun-19 04:17N 37°55' W 122°22'0 0.0
2018-Jun-19 04:00N 37°55' W 122°22'0 0.0
2018-Jun-19 03:27N 37°55' W 122°22'0 0.0
2018-Jun-19 03:00N 37°55' W 122°22'0 0.0
2018-Jun-19 02:30N 37°55' W 122°22'1 1.5
2018-Jun-19 02:00N 37°54' W 122°22'2 4.8
2018-Jun-19 01:30N 37°55' W 122°25'5 9.2
2018-Jun-19 01:01N 37°50' W 122°27'713.4
2018-Jun-19 00:30N 37°47' W 122°35'611.4
2018-Jun-19 00:00N 37°44' W 122°41'4 8.2
2018-Jun-18 23:30N 37°42' W 122°45'5 9.8
2018-Jun-18 23:00N 37°39' W 122°50'5 9.7
2018-Jun-18 22:30N 37°36' W 122°55'510.5
2018-Jun-18 22:00N 37°33' W 123°01'612.8
2018-Jun-18 21:30N 37°30' W 123°07'1114.1
2018-Jun-18 20:45N 37°24' W 123°19'414.4
2018-Jun-18 20:30N 37°22' W 123°22'713.6
2018-Jun-18 20:01N 37°19' W 123°30'714.1
2018-Jun-18 19:29N 37°18' W 123°39'714.2
2018-Jun-18 19:00N 37°19' W 123°47'714.3
2018-Jun-18 18:30N 37°19' W 123°56'714.1
2018-Jun-18 17:59N 37°19' W 124°06'714.3
2018-Jun-18 17:31N 37°19' W 124°14'713.6
2018-Jun-18 16:59N 37°19' W 124°23'1312.9
2018-Jun-18 15:58N 37°18' W 124°40'2 3.3
2018-Jun-18 15:27N 37°20' W 124°40'3 5.9
2018-Jun-18 14:59N 37°20' W 124°43'612.0
2018-Jun-18 14:30N 37°20' W 124°51'3013.3
2018-Jun-18 12:16N 37°21' W 125°28'  
Track history (hours):
 
Tides and Currents Weather Stations Pressure Air Temp Water Temp Dewpoint Dewpoint Depression Visibility Wind Speed Wind Dir Waves Ship Positions

Kiso

Last reported at 2018-Jun-19 10:21 UTC. Time now 2018-Jun-19 10:37 UTC.
Position N 37°55' W 122°22'.

Length 170 m; draft 9.8 m.

Type: Ship. MMSI: 356958000.

Date/timePositionNaut miles runAvg speedWind from/ knotsBaromVisibWave heightAir tempDewpointWater temp
2018-Jun-19 10:21N 37°55' W 122°22'0 0.0
2018-Jun-19 08:29N 37°55' W 122°22'0 0.0
2018-Jun-19 07:48N 37°55' W 122°22'0 0.0
2018-Jun-19 07:27N 37°55' W 122°22'0 0.0
2018-Jun-19 06:56N 37°55' W 122°22'0 0.0
2018-Jun-19 06:26N 37°55' W 122°22'0 0.0
2018-Jun-19 05:57N 37°55' W 122°22'0 0.0
2018-Jun-19 05:26N 37°55' W 122°22'0 0.0
2018-Jun-19 04:56N 37°55' W 122°22'0 0.0
2018-Jun-19 04:17N 37°55' W 122°22'0 0.0
2018-Jun-19 04:00N 37°55' W 122°22'0 0.0
2018-Jun-19 03:27N 37°55' W 122°22'0 0.0
2018-Jun-19 03:00N 37°55' W 122°22'0 0.0
2018-Jun-19 02:30N 37°55' W 122°22'1 1.5
2018-Jun-19 02:00N 37°54' W 122°22'2 4.8
2018-Jun-19 01:30N 37°55' W 122°25'5 9.2
2018-Jun-19 01:01N 37°50' W 122°27'713.4
2018-Jun-19 00:30N 37°47' W 122°35'611.4
2018-Jun-19 00:00N 37°44' W 122°41'4 8.2
2018-Jun-18 23:30N 37°42' W 122°45'5 9.8
2018-Jun-18 23:00N 37°39' W 122°50'5 9.7
2018-Jun-18 22:30N 37°36' W 122°55'510.5
2018-Jun-18 22:00N 37°33' W 123°01'612.8
2018-Jun-18 21:30N 37°30' W 123°07'1114.1
2018-Jun-18 20:45N 37°24' W 123°19'414.4
2018-Jun-18 20:30N 37°22' W 123°22'713.6
2018-Jun-18 20:01N 37°19' W 123°30'714.1
2018-Jun-18 19:29N 37°18' W 123°39'714.2
2018-Jun-18 19:00N 37°19' W 123°47'714.3
2018-Jun-18 18:30N 37°19' W 123°56'714.1
2018-Jun-18 17:59N 37°19' W 124°06'714.3
2018-Jun-18 17:31N 37°19' W 124°14'713.6
2018-Jun-18 16:59N 37°19' W 124°23'1312.9
2018-Jun-18 15:58N 37°18' W 124°40'2 3.3
2018-Jun-18 15:27N 37°20' W 124°40'3 5.9
2018-Jun-18 14:59N 37°20' W 124°43'612.0
2018-Jun-18 14:30N 37°20' W 124°51'3013.3
2018-Jun-18 12:16N 37°21' W 125°28'  

Dump ship's entire track history